X  Close Metar Aviation Weather Data     KMLB Melbourne Orlando International Airport
Temperature
77°F Temperature
72°F Dewpoint
83% Humidity



Wind
7 MPH
11 KM/H
3 M/S
6 KTS



150°
SSE
Current Conditions

Clear Clear
Pressure 1016.92 (hPa) - 30.03 (inHg)
Visibility 10 (mile) - 16.1 (km)
Airport
Airport-code KMLB

Location: Melbourne Orlando International Airport
Distance: 4 (mi)

Metar:
KMLB 270553Z AUTO 15006KT 10SM CLR 25/22 A3003 RMK AO2 SLP167 T02500217 10272 20250 58012

Time: 27-05-2022 1:53 am EDT